• Join FlightAware (Why Join?)
  • Login
  • US Flag 
10:05PM EDT


 

Airport Tracker/Info


-or-


 

Live Flight TrackerFlight Track Log ✈ DAL1051 ✈ 23-Jul-2013 ✈ KMSP - KBIL

Flight Track Log - Related Links

Times and Time Zones

All times are in EDT time to prevent confusion due to time zone crossing. See the DAL1051 flight status page for this flight to view local times or setup timezone preferences in your user account.

Time Position Orientation Groundspeed Altitude Reporting Facility
EDT Latitude Longitude Course Direction KTS MPH feet Rate Location/Type
12:41PM 44.9167 -93.2667 288° West 166 191 2,800  Level Minneapolis TRACON
12:43PM 45.0075 -93.6391 295° West  Level FlightAware Approximate
12:43PM 44.9508 -93.3756 294° West 249 287 4,400  Level Minneapolis Center
12:44PM 45.0547 -93.7806 295° West  Level FlightAware Approximate
12:44PM 44.9850 -93.4658 298° West 261 300 7,900  Level Minneapolis Center
12:45PM 45.0978 -93.9245 290° West  Level FlightAware Approximate
12:45PM 45.0100 -93.5653 290° West 269 310 11,100  Level Minneapolis Center
12:46PM 45.1312 -94.0738 288° West  Level FlightAware Approximate
12:46PM 45.0461 -93.7069 290° West 336 387 13,100  Level Minneapolis Center
12:47PM 45.1645 -94.2233 288° West  Level FlightAware Approximate
12:47PM 45.0797 -93.8389 290° West 359 413 15,700  Level Minneapolis Center
12:48PM 45.1142 -93.9758 290° West 374 430 18,100 2,160 Climbing Minneapolis Center
12:49PM 45.1475 -94.1172 289° West 376 433 20,300 1,920 Climbing Minneapolis Center
12:50PM 45.1833 -94.2644 289° West 390 449 22,500 1,620 Climbing Minneapolis Center
12:51PM 45.2192 -94.4147 289° West 399 459 24,000 1,740 Climbing Minneapolis Center
12:52PM 45.2719 -94.6353 289° West 419 482 26,100 1,560 Climbing Minneapolis Center
12:53PM 45.3047 -94.7769 288° West 429 494 27,300 1,200 Climbing Minneapolis Center
12:55PM 45.3517 -94.9753 289° West 440 506 28,900 1,620 Climbing Minneapolis Center
12:56PM 45.3978 -95.1722 289° West 440 506 31,100 1,740 Climbing Minneapolis Center
12:57PM 45.4339 -95.3286 288° West 423 487 32,600 1,200 Climbing Minneapolis Center
12:58PM 45.4689 -95.4881 287° West 424 488 33,600 660 Climbing Minneapolis Center
12:59PM 45.5061 -95.6478 288° West 426 490 34,000 180 Climbing Minneapolis Center
01:00PM 45.5486 -95.8389 288° West 425 489 34,000  Level Minneapolis Center
01:01PM 45.5847 -96.0003 288° West 427 491 34,000  Level Minneapolis Center
01:02PM 45.6211 -96.1600 288° West 426 490 34,000 120 Level Minneapolis Center
01:03PM 45.6564 -96.3231 287° West 430 495 34,300 780 Climbing Minneapolis Center
01:04PM 45.6914 -96.4844 287° West 427 491 35,700 780 Climbing Minneapolis Center
01:05PM 45.7317 -96.6678 288° West 406 467 36,000 120 Climbing Minneapolis Center
01:06PM 45.7656 -96.8206 288° West 404 465 36,000  Level Minneapolis Center
01:07PM 45.7972 -96.9761 286° West 408 470 36,000  Level Minneapolis Center
01:08PM 45.8294 -97.1289 287° West 404 465 36,000  Level Minneapolis Center
01:09PM 45.8683 -97.3139 287° West 405 466 36,000  Level Minneapolis Center
01:10PM 45.8983 -97.4525 287° West 408 470 36,000 -60 Level Minneapolis Center
01:11PM 45.9269 -97.6128 284° West 412 474 35,900  Descending Minneapolis Center
01:12PM 45.9403 -97.7744 277° West 408 470 36,000  Climbing Minneapolis Center
01:13PM 45.9581 -97.9694 278° West 410 472 36,000  Level Minneapolis Center
01:14PM 45.9722 -98.1286 277° West 408 470 36,000  Level Minneapolis Center
01:15PM 45.9872 -98.2914 278° West 411 473 36,000  Level Minneapolis Center
01:16PM 46.0006 -98.4508 277° West 406 467 36,000  Level Minneapolis Center
01:17PM 46.0142 -98.6108 277° West 404 465 36,000  Level Minneapolis Center
01:18PM 46.0300 -98.8044 277° West 407 468 36,000  Level Minneapolis Center
01:19PM 46.0419 -98.9631 276° West 404 465 36,000  Level Minneapolis Center
01:21PM 46.0547 -99.1228 277° West 403 464 36,000  Level Minneapolis Center
01:22PM 46.0678 -99.2833 277° West 404 465 36,000  Level Minneapolis Center
01:23PM 46.0797 -99.4436 276° West 404 465 36,000  Level Minneapolis Center
01:24PM 46.0942 -99.6358 276° West 404 465 36,000  Level Minneapolis Center
01:25PM 46.1053 -99.7936 276° West 401 461 36,000  Level Minneapolis Center
01:26PM 46.1161 -99.9553 276° West 406 467 36,000  Level Minneapolis Center
01:27PM 46.1281 -100.1169 276° West 409 471 36,000  Level Minneapolis Center
01:28PM 46.1394 -100.2756 276° West 403 464 36,000  Level Minneapolis Center
01:29PM 46.1483 -100.4325 275° West 398 458 36,000  Level Minneapolis Center
01:30PM 46.1425 -100.6272 268° West 403 464 36,000  Level Minneapolis Center
01:31PM 46.1406 -100.7881 269° West 404 465 36,000  Level Minneapolis Center
01:32PM 46.1389 -100.9506 269° West 406 467 36,000  Level Minneapolis Center
01:33PM 46.1367 -101.1469 269° West 409 471 36,000  Level Minneapolis Center
01:34PM 46.1339 -101.3414 269° West 408 470 36,000  Level Minneapolis Center
01:35PM 46.1303 -101.5397 269° West 409 471 36,000  Level Minneapolis Center
01:36PM 46.1278 -101.7047 269° West 411 473 36,000  Level Minneapolis Center
01:37PM 46.1247 -101.8661 268° West 409 471 36,000  Level Minneapolis Center
01:39PM 46.1217 -102.0267 268° West 406 467 36,000  Level Minneapolis Center
01:40PM 46.1181 -102.2225 269° West 406 467 36,000  Level Minneapolis Center
01:41PM 46.1139 -102.3828 268° West 405 466 36,000 -60 Level Minneapolis Center
01:42PM 46.1089 -102.5764 268° West 406 467 35,900 -60 Descending Minneapolis Center
01:43PM 46.1081 -102.7361 270° West 404 465 35,900  Level Minneapolis Center
01:44PM 46.0997 -102.8972 266° West 403 464 36,000  Climbing Minneapolis Center
01:45PM 46.0917 -103.0600 266° West 405 466 36,000  Level Minneapolis Center
01:46PM 46.0833 -103.2228 266° West 406 467 36,000  Level Minneapolis Center
01:47PM 46.0750 -103.3847 266° West 406 467 36,000  Level Minneapolis Center
01:48PM 46.0656 -103.5800 266° West 407 468 36,000 -60 Level Minneapolis Center
01:49PM 46.0567 -103.7131 265° West 409 471 35,900  Descending Salt Lake Center
01:50PM 46.0456 -103.9092 265° West 410 472 36,000  Climbing Salt Lake Center
01:51PM 46.0372 -104.0731 266° West 409 471 36,000  Level Salt Lake Center
01:52PM 46.0278 -104.2367 265° West 410 472 36,000  Level Salt Lake Center
01:53PM 46.0183 -104.3978 265° West 410 472 36,000  Level Salt Lake Center
01:54PM 46.0083 -104.5592 265° West 408 470 36,000 -60 Level Salt Lake Center
01:55PM 45.9992 -104.7161 265° West 403 464 35,900 -60 Descending Salt Lake Center
01:56PM 45.9886 -104.8750 265° West 401 461 35,900  Level Salt Lake Center
01:57PM 45.9767 -105.0653 265° West 400 460 35,900  Level Salt Lake Center
01:58PM 45.9667 -105.2261 265° West 401 461 36,000  Climbing Salt Lake Center
01:59PM 45.9569 -105.3889 265° West 403 464 36,000  Level Salt Lake Center
02:00PM 45.9447 -105.5472 264° West 403 464 36,000  Level Salt Lake Center
02:01PM 45.9331 -105.7092 264° West 405 466 36,000  Level Salt Lake Center
02:02PM 45.9214 -105.8694 264° West 405 466 36,000 -60 Level Salt Lake Center
02:03PM 45.9083 -106.0619 265° West 405 466 35,900 -180 Descending Salt Lake Center
02:05PM 45.8947 -106.2206 263° West 404 465 35,700 -720 Descending Salt Lake Center
02:06PM 45.8833 -106.3831 264° West 405 466 34,500 -2,820 Descending Salt Lake Center
02:07PM 45.8703 -106.5492 264° West 410 472 29,900 -3,960 Descending Salt Lake Center
02:08PM 45.8544 -106.7200 262° West 420 483 26,400 -3,120 Descending Salt Lake Center
02:09PM 45.8433 -106.8858 265° West 421 484 23,500 -3,000 Descending Salt Lake Center
02:10PM 45.8300 -107.0758 264° West 413 475 20,200 -2,880 Descending Salt Lake Center
02:11PM 45.8183 -107.2278 264° West 392 451 17,600 -2,340 Descending Salt Lake Center
02:12PM 45.8050 -107.3878 263° West 380 437 15,400 -2,040 Descending Salt Lake Center
02:13PM 45.8008 -107.5325 268° West 370 426 13,400 -1,560 Descending Salt Lake Center
02:14PM 45.7961 -107.6733 267° West 336 387 12,200 -1,140 Descending Salt Lake Center
02:15PM 45.7928 -107.7906 268° West 303 349 11,100 -1,080 Descending Salt Lake Center
02:16PM 45.7883 -107.9039 267° West 273 314 10,000 -1,020 Descending Salt Lake Center
02:17PM 45.7853 -108.0025 267° West 253 291 9,100 -960 Descending Salt Lake Center
02:18PM 45.7811 -108.1103 267° West 252 290 8,100 -1,020 Descending Salt Lake Center